createdAt,value
2022-11-27T00:02:00.435Z,100240.28
2022-11-27T00:04:45.675Z,100233.94
2022-11-27T00:07:31.204Z,100231.94
2022-11-27T00:10:16.474Z,100242.22
2022-11-27T00:13:01.828Z,100232.72
2022-11-27T00:15:47.339Z,100218.03
2022-11-27T00:18:33.461Z,100214.06
2022-11-27T00:21:25.636Z,100209.31
2022-11-27T00:24:11.916Z,100214.84
2022-11-27T00:26:57.440Z,100214.03
2022-11-27T00:29:43.243Z,100214.84
2022-11-27T00:32:28.804Z,100208.47
2022-11-27T00:35:14.151Z,100212.03
2022-11-27T00:37:59.560Z,100211.63
2022-11-27T00:40:44.793Z,100208.47
2022-11-27T00:43:30.196Z,100203.72
2022-11-27T00:46:17.537Z,100199.75
2022-11-27T00:49:05.546Z,100200.91
2022-11-27T00:51:51.019Z,100199.72
2022-11-27T00:54:36.532Z,100200.91
2022-11-27T00:57:21.709Z,100200.50
2022-11-27T01:00:07.906Z,100202.03
2022-11-27T01:02:53.520Z,100198.06
2022-11-27T01:05:38.620Z,100208.38
2022-11-27T01:08:24.019Z,100202.03
2022-11-27T01:11:14.832Z,100201.63
2022-11-27T01:14:03.075Z,100190.53
2022-11-27T01:16:48.262Z,100184.56
2022-11-27T01:19:33.501Z,100181.41
2022-11-27T01:22:18.936Z,100177.06
2022-11-27T01:25:05.687Z,100167.13
2022-11-27T01:27:50.947Z,100170.31
2022-11-27T01:30:39.531Z,100169.09
2022-11-27T01:33:25.507Z,100162.75
2022-11-27T01:36:13.481Z,100160.38
2022-11-27T01:39:00.115Z,100153.63
2022-11-27T01:41:47.149Z,100150.06
2022-11-27T01:44:32.204Z,100142.13
2022-11-27T01:47:29.563Z,100138.19
2022-11-27T01:50:27.143Z,100133.84
2022-11-27T01:53:18.796Z,100128.66
2022-11-27T01:56:05.561Z,100121.94
2022-11-27T01:58:51.800Z,100128.66
2022-11-27T02:01:37.255Z,100113.22
2022-11-27T02:04:22.544Z,100110.81
2022-11-27T02:07:07.818Z,100102.09
2022-11-27T02:09:53.177Z,100099.34
2022-11-27T02:12:56.570Z,100106.44
2022-11-27T02:15:45.123Z,100100.13
2022-11-27T02:18:55.043Z,100096.94
2022-11-27T02:22:09.972Z,100088.22
2022-11-27T02:25:13.426Z,100091.00
2022-11-27T02:28:08.166Z,100102.06
2022-11-27T02:31:04.938Z,100094.19
2022-11-27T02:33:55.909Z,100098.13
2022-11-27T02:36:49.585Z,100086.25
2022-11-27T02:39:41.105Z,100085.47
2022-11-27T02:42:30.091Z,100089.41
2022-11-27T02:45:22.487Z,100089.81
2022-11-27T02:48:09.809Z,100085.44
2022-11-27T02:50:56.126Z,100088.59
2022-11-27T02:53:58.059Z,100100.47
2022-11-27T02:56:45.148Z,100087.00
2022-11-27T02:59:33.503Z,100093.72
2022-11-27T03:02:26.859Z,100102.03
2022-11-27T03:05:18.987Z,100087.78
2022-11-27T03:08:14.089Z,100096.50
2022-11-27T03:11:11.696Z,100095.69
2022-11-27T03:14:00.789Z,100105.19
2022-11-27T03:16:58.333Z,100098.06
2022-11-27T03:19:54.761Z,100089.34
2022-11-27T03:22:40.201Z,100092.13
2022-11-27T03:25:25.811Z,100093.28
2022-11-27T03:28:13.978Z,100084.97
2022-11-27T03:30:59.622Z,100084.56
2022-11-27T03:33:44.928Z,100089.72
2022-11-27T03:36:30.140Z,100078.66
2022-11-27T03:39:15.777Z,100084.97
2022-11-27T03:42:28.821Z,100076.25
2022-11-27T03:45:14.488Z,100075.88
2022-11-27T03:48:21.428Z,100076.25
2022-11-27T03:51:25.158Z,100068.75
2022-11-27T03:54:25.817Z,100063.22
2022-11-27T03:57:31.473Z,100065.59
2022-11-27T04:00:17.466Z,100060.84
2022-11-27T04:03:03.515Z,100057.69
2022-11-27T04:05:49.057Z,100064.81
2022-11-27T04:08:34.331Z,100065.63
2022-11-27T04:11:19.812Z,100072.72
2022-11-27T04:14:05.968Z,100068.00
2022-11-27T04:16:51.424Z,100068.00
2022-11-27T04:19:36.760Z,100071.19
2022-11-27T04:22:21.917Z,100072.75
2022-11-27T04:25:07.662Z,100075.94
2022-11-27T04:27:52.979Z,100075.94
2022-11-27T04:30:38.149Z,100077.50
2022-11-27T04:33:23.519Z,100087.41
2022-11-27T04:36:08.866Z,100087.81
2022-11-27T04:38:54.129Z,100076.75
2022-11-27T04:41:39.545Z,100084.63
2022-11-27T04:44:24.787Z,100085.47
2022-11-27T04:47:10.047Z,100077.16
2022-11-27T04:49:55.267Z,100081.50
2022-11-27T04:52:40.599Z,100080.31
2022-11-27T04:55:25.927Z,100084.66
2022-11-27T04:58:11.169Z,100067.25
2022-11-27T05:00:56.361Z,100075.97
2022-11-27T05:03:41.939Z,100065.69
2022-11-27T05:06:27.329Z,100067.66
2022-11-27T05:09:12.735Z,100066.50
2022-11-27T05:11:58.050Z,100060.16
2022-11-27T05:14:43.405Z,100062.94
2022-11-27T05:17:28.565Z,100063.34
2022-11-27T05:20:13.787Z,100065.72
2022-11-27T05:22:59.312Z,100073.63
2022-11-27T05:25:44.948Z,100081.94
2022-11-27T05:28:30.086Z,100085.50
2022-11-27T05:31:15.223Z,100080.38
2022-11-27T05:34:00.784Z,100083.91
2022-11-27T05:36:46.663Z,100079.16
2022-11-27T05:39:32.239Z,100077.22
2022-11-27T05:42:17.408Z,100085.13
2022-11-27T05:45:04.681Z,100087.09
2022-11-27T05:47:50.249Z,100091.47
2022-11-27T05:50:35.466Z,100090.66
2022-11-27T05:53:20.725Z,100083.94
2022-11-27T05:56:12.176Z,100078.78
2022-11-27T05:58:57.859Z,100076.03
2022-11-27T06:01:43.643Z,100072.47
2022-11-27T06:04:29.112Z,100074.91
2022-11-27T06:07:14.796Z,100072.50
2022-11-27T06:10:00.496Z,100061.47
2022-11-27T06:12:46.526Z,100062.66
2022-11-27T06:15:32.035Z,100065.06
2022-11-27T06:18:17.930Z,100061.47
2022-11-27T06:21:13.210Z,100062.28
2022-11-27T06:23:58.309Z,100058.31
2022-11-27T06:26:44.375Z,100058.31
2022-11-27T06:29:31.440Z,100055.13
2022-11-27T06:32:17.056Z,100059.09
2022-11-27T06:35:02.629Z,100057.13
2022-11-27T06:37:48.733Z,100056.31
2022-11-27T06:40:34.496Z,100050.41
2022-11-27T06:43:20.079Z,100048.03
2022-11-27T06:46:07.543Z,100054.75
2022-11-27T06:48:54.758Z,100038.09
2022-11-27T06:51:40.268Z,100030.97
2022-11-27T06:54:25.745Z,100028.22
2022-11-27T06:57:11.459Z,100032.19
2022-11-27T06:59:56.876Z,100041.28
2022-11-27T07:02:42.241Z,100042.09
2022-11-27T07:05:29.888Z,100038.13
2022-11-27T07:08:15.616Z,100044.47
2022-11-27T07:11:10.246Z,100042.09
2022-11-27T07:13:57.672Z,100039.72
2022-11-27T07:16:43.730Z,100045.25
2022-11-27T07:19:29.192Z,100036.16
2022-11-27T07:22:16.267Z,100041.28
2022-11-27T07:25:01.890Z,100036.91
2022-11-27T07:27:47.269Z,100034.94
2022-11-27T07:30:32.559Z,100042.06
2022-11-27T07:33:18.077Z,100036.53
2022-11-27T07:36:10.966Z,100034.94
2022-11-27T07:38:56.759Z,100034.94
2022-11-27T07:41:42.337Z,100027.41
2022-11-27T07:44:27.543Z,100027.78
2022-11-27T07:47:12.895Z,100013.91
2022-11-27T07:50:00.436Z,100009.16
2022-11-27T07:52:46.044Z,100006.38
2022-11-27T07:55:31.364Z,100007.16
2022-11-27T07:58:16.756Z,100005.59
2022-11-27T08:01:07.194Z,100005.59
2022-11-27T08:03:52.476Z,100001.22
2022-11-27T08:06:37.962Z,99993.31
2022-11-27T08:09:23.373Z,99981.41
2022-11-27T08:12:08.657Z,99980.63
2022-11-27T08:14:53.935Z,99973.88
2022-11-27T08:17:40.169Z,99971.50
2022-11-27T08:20:26.343Z,99968.31
2022-11-27T08:23:11.687Z,99972.28
2022-11-27T08:25:56.996Z,99975.06
2022-11-27T08:28:42.439Z,99981.00
2022-11-27T08:31:27.851Z,99977.03
2022-11-27T08:34:13.339Z,99969.13
2022-11-27T08:36:58.552Z,99971.50
2022-11-27T08:39:43.845Z,99983.41
2022-11-27T08:42:29.074Z,99969.91
2022-11-27T08:45:14.744Z,99973.47
2022-11-27T08:48:00.336Z,99975.84
2022-11-27T08:50:47.598Z,99965.97
2022-11-27T08:53:33.487Z,99979.06
2022-11-27T08:56:21.482Z,99978.66
2022-11-27T08:59:06.755Z,99979.44
2022-11-27T09:01:51.967Z,99974.28
2022-11-27T09:04:37.271Z,99977.06
2022-11-27T09:07:22.782Z,99970.34
2022-11-27T09:10:09.018Z,99967.94
2022-11-27T09:12:56.230Z,99964.00
2022-11-27T09:15:41.578Z,99964.78
2022-11-27T09:18:26.970Z,99959.22
2022-11-27T09:21:14.531Z,99960.44
2022-11-27T09:24:01.893Z,99949.34
2022-11-27T09:26:47.212Z,99949.34
2022-11-27T09:29:34.598Z,99939.03
2022-11-27T09:32:22.056Z,99934.69
2022-11-27T09:35:07.760Z,99932.69
2022-11-27T09:37:52.951Z,99925.53
2022-11-27T09:40:45.518Z,99923.97
2022-11-27T09:43:36.734Z,99921.59
2022-11-27T09:46:31.865Z,99908.09
2022-11-27T09:49:29.346Z,99906.91
2022-11-27T09:52:27.652Z,99898.59
2022-11-27T09:55:24.305Z,99890.66
2022-11-27T09:58:19.010Z,99881.13
2022-11-27T10:01:35.321Z,99885.88
2022-11-27T10:04:25.845Z,99885.88
2022-11-27T10:07:26.442Z,99870.81
2022-11-27T10:10:33.294Z,99868.41
2022-11-27T10:13:40.633Z,99868.03
2022-11-27T10:16:45.047Z,99854.16
2022-11-27T10:19:48.552Z,99854.16
2022-11-27T10:22:44.850Z,99851.34
2022-11-27T10:25:56.770Z,99850.16
2022-11-27T10:28:47.028Z,99860.84
2022-11-27T10:31:38.675Z,99858.84
2022-11-27T10:34:45.054Z,99846.13
2022-11-27T10:37:43.294Z,99846.91
2022-11-27T10:41:03.760Z,99835.03
2022-11-27T10:43:55.362Z,99831.84
2022-11-27T10:46:41.196Z,99843.34
2022-11-27T10:49:26.890Z,99826.31
2022-11-27T10:52:14.917Z,99827.88
2022-11-27T10:55:04.690Z,99824.72
2022-11-27T10:58:02.840Z,99819.16
2022-11-27T11:00:48.574Z,99818.78
2022-11-27T11:03:35.199Z,99814.44
2022-11-27T11:06:26.768Z,99819.59
2022-11-27T11:09:18.883Z,99823.16
2022-11-27T11:12:21.540Z,99815.59
2022-11-27T11:15:11.664Z,99823.91
2022-11-27T11:17:57.160Z,99812.81
2022-11-27T11:20:47.761Z,99816.00
2022-11-27T11:23:35.953Z,99812.00
2022-11-27T11:26:21.717Z,99818.38
2022-11-27T11:29:39.271Z,99821.53
2022-11-27T11:32:32.380Z,99821.53
2022-11-27T11:35:32.171Z,99823.13
2022-11-27T11:38:22.513Z,99824.69
2022-11-27T11:41:08.056Z,99823.91
2022-11-27T11:43:54.741Z,99819.91
2022-11-27T11:46:40.525Z,99815.19
2022-11-27T11:49:27.929Z,99816.75
2022-11-27T11:52:22.319Z,99812.38
2022-11-27T11:55:19.141Z,99808.81
2022-11-27T11:58:29.559Z,99798.47
2022-11-27T12:01:30.605Z,99806.41
2022-11-27T12:04:28.301Z,99796.09
2022-11-27T12:07:35.798Z,99795.69
2022-11-27T12:10:21.351Z,99799.25
2022-11-27T12:13:55.405Z,99793.69
2022-11-27T12:17:02.801Z,99790.91
2022-11-27T12:20:07.120Z,99784.97
2022-11-27T12:23:14.943Z,99781.44
2022-11-27T12:26:26.757Z,99778.25
2022-11-27T12:29:29.864Z,99773.50
2022-11-27T12:32:31.081Z,99762.78
2022-11-27T12:35:34.638Z,99764.34
2022-11-27T12:38:32.537Z,99762.38
2022-11-27T12:41:36.234Z,99755.66
2022-11-27T12:44:49.184Z,99746.13
2022-11-27T12:47:43.647Z,99752.44
2022-11-27T12:51:01.592Z,99740.16
2022-11-27T12:53:56.274Z,99747.69
2022-11-27T12:56:58.016Z,99739.72
2022-11-27T12:59:52.779Z,99735.38
2022-11-27T13:02:46.563Z,99733.41
2022-11-27T13:06:06.422Z,99725.84
2022-11-27T13:09:02.660Z,99711.59
2022-11-27T13:11:48.376Z,99706.41
2022-11-27T13:14:38.602Z,99702.06
2022-11-27T13:17:27.432Z,99702.44
2022-11-27T13:20:18.058Z,99693.75
2022-11-27T13:23:03.889Z,99681.03
2022-11-27T13:25:54.861Z,99677.06
2022-11-27T13:28:55.399Z,99680.25
2022-11-27T13:31:44.047Z,99671.91
2022-11-27T13:34:32.517Z,99663.56
2022-11-27T13:37:40.222Z,99665.56
2022-11-27T13:40:37.724Z,99656.44
2022-11-27T13:43:32.661Z,99663.97
2022-11-27T13:46:49.091Z,99666.38
2022-11-27T13:49:37.998Z,99665.19
2022-11-27T13:52:23.360Z,99655.69
2022-11-27T13:55:09.956Z,99654.09
2022-11-27T13:57:56.798Z,99647.78
2022-11-27T14:00:44.929Z,99654.88
2022-11-27T14:03:30.884Z,99655.69
2022-11-27T14:06:16.326Z,99654.09
2022-11-27T14:09:03.873Z,99652.91
2022-11-27T14:11:50.985Z,99652.09
2022-11-27T14:14:36.341Z,99647.00
2022-11-27T14:17:36.817Z,99647.38
2022-11-27T14:20:30.269Z,99653.28
2022-11-27T14:23:34.195Z,99650.50
2022-11-27T14:26:21.503Z,99646.56
2022-11-27T14:29:12.099Z,99654.09
2022-11-27T14:32:02.290Z,99652.94
2022-11-27T14:34:48.823Z,99645.38
2022-11-27T14:37:34.304Z,99649.38
2022-11-27T14:40:50.626Z,99648.59
2022-11-27T14:43:36.164Z,99650.16
2022-11-27T14:46:22.310Z,99642.22
2022-11-27T14:49:20.374Z,99639.84
2022-11-27T14:52:13.388Z,99632.69
2022-11-27T14:55:00.629Z,99639.81
2022-11-27T14:57:48.351Z,99643.78
2022-11-27T15:00:33.781Z,99629.91
2022-11-27T15:03:19.503Z,99627.09
2022-11-27T15:06:07.760Z,99630.25
2022-11-27T15:09:15.961Z,99625.50
2022-11-27T15:12:14.363Z,99621.94
2022-11-27T15:15:07.811Z,99615.22
2022-11-27T15:17:56.133Z,99608.84
2022-11-27T15:20:45.113Z,99607.66
2022-11-27T15:23:32.190Z,99608.81
2022-11-27T15:26:35.739Z,99611.63
2022-11-27T15:29:38.587Z,99603.28
2022-11-27T15:32:26.889Z,99602.91
2022-11-27T15:35:15.002Z,99599.72
2022-11-27T15:38:09.191Z,99600.03
2022-11-27T15:41:00.789Z,99598.47
2022-11-27T15:43:45.910Z,99592.16
2022-11-27T15:46:35.112Z,99581.81
2022-11-27T15:49:22.182Z,99577.03
2022-11-27T15:52:07.912Z,99572.69
2022-11-27T15:54:55.589Z,99564.38
2022-11-27T15:57:41.102Z,99570.72
2022-11-27T16:00:26.758Z,99564.00
2022-11-27T16:03:13.223Z,99559.22
2022-11-27T16:06:07.503Z,99555.28
2022-11-27T16:11:41.907Z,99548.91
2022-11-27T16:14:27.638Z,99546.50
2022-11-27T16:17:13.591Z,99545.31
2022-11-27T16:19:59.122Z,99543.69
2022-11-27T16:22:44.480Z,99546.88
2022-11-27T16:25:31.944Z,99549.66
2022-11-27T16:28:17.695Z,99546.88
2022-11-27T16:31:09.999Z,99545.69
2022-11-27T16:33:55.561Z,99543.25
2022-11-27T16:36:43.844Z,99542.06
2022-11-27T16:39:29.629Z,99540.47
2022-11-27T16:42:15.615Z,99542.84
2022-11-27T16:45:00.693Z,99551.19
2022-11-27T16:47:46.044Z,99544.78
2022-11-27T16:50:31.896Z,99546.75
2022-11-27T16:53:17.637Z,99533.28
2022-11-27T16:56:03.196Z,99541.59
2022-11-27T16:58:48.653Z,99533.28
2022-11-27T17:01:36.146Z,99529.31
2022-11-27T17:04:21.877Z,99531.63
2022-11-27T17:07:07.135Z,99527.22
2022-11-27T17:09:52.657Z,99520.13
2022-11-27T17:12:37.780Z,99521.28
2022-11-27T17:15:23.599Z,99514.50
2022-11-27T17:18:09.508Z,99504.97
2022-11-27T17:21:00.848Z,99495.91
2022-11-27T17:23:46.950Z,99498.31
2022-11-27T17:26:34.606Z,99501.44
2022-11-27T17:29:23.179Z,99490.34
2022-11-27T17:32:10.009Z,99497.09
2022-11-27T17:34:56.233Z,99499.06
2022-11-27T17:37:43.624Z,99495.53
2022-11-27T17:40:30.636Z,99492.38
2022-11-27T17:43:16.217Z,99483.25
2022-11-27T17:46:02.361Z,99471.00
2022-11-27T17:48:47.823Z,99472.19
2022-11-27T17:51:35.643Z,99458.66
2022-11-27T17:54:21.166Z,99458.25
2022-11-27T17:57:06.835Z,99457.09
2022-11-27T17:59:52.684Z,99451.94
2022-11-27T18:02:38.517Z,99450.72
2022-11-27T18:05:24.089Z,99442.38
2022-11-27T18:08:09.934Z,99443.59
2022-11-27T18:10:55.553Z,99445.56
2022-11-27T18:13:41.862Z,99442.41
2022-11-27T18:16:34.951Z,99434.88
2022-11-27T18:19:20.767Z,99423.41
2022-11-27T18:22:08.335Z,99420.63
2022-11-27T18:24:53.727Z,99402.38
2022-11-27T18:27:39.742Z,99404.78
2022-11-27T18:30:25.936Z,99402.00
2022-11-27T18:33:11.665Z,99396.06
2022-11-27T18:35:57.231Z,99393.66
2022-11-27T18:38:44.872Z,99390.50
2022-11-27T18:41:30.545Z,99391.28
2022-11-27T18:44:17.201Z,99386.50
2022-11-27T18:47:04.376Z,99375.38
2022-11-27T18:49:50.252Z,99373.03
2022-11-27T18:52:38.382Z,99378.59
2022-11-27T18:55:23.548Z,99377.81
2022-11-27T18:58:08.825Z,99384.16
2022-11-27T19:00:57.407Z,99380.94
2022-11-27T19:03:44.331Z,99396.81
2022-11-27T19:06:30.259Z,99396.81
2022-11-27T19:09:16.027Z,99399.59
2022-11-27T19:12:01.908Z,99388.13
2022-11-27T19:14:47.271Z,99389.34
2022-11-27T19:17:32.842Z,99384.97
2022-11-27T19:20:19.569Z,99389.34
2022-11-27T19:23:06.050Z,99393.66
2022-11-27T19:25:53.208Z,99393.66
2022-11-27T19:28:39.048Z,99394.47
2022-11-27T19:31:27.754Z,99388.56
2022-11-27T19:34:13.744Z,99391.72
2022-11-27T19:36:59.329Z,99387.31
2022-11-27T19:39:44.598Z,99386.94
2022-11-27T19:42:32.387Z,99376.59
2022-11-27T19:45:22.728Z,99375.03
2022-11-27T19:48:08.003Z,99374.22
2022-11-27T19:50:53.351Z,99371.47
2022-11-27T19:53:39.370Z,99371.03
2022-11-27T19:56:27.782Z,99360.78
2022-11-27T19:59:15.212Z,99357.19
2022-11-27T20:02:00.555Z,99354.44
2022-11-27T20:04:47.360Z,99351.66
2022-11-27T20:07:32.659Z,99352.88
2022-11-27T20:10:18.875Z,99349.69
2022-11-27T20:13:04.373Z,99337.44
2022-11-27T20:15:49.814Z,99340.97
2022-11-27T20:18:36.028Z,99341.75
2022-11-27T20:21:24.780Z,99343.75
2022-11-27T20:24:10.519Z,99331.50
2022-11-27T20:26:56.203Z,99327.88
2022-11-27T20:29:42.163Z,99322.72
2022-11-27T20:32:27.904Z,99319.16
2022-11-27T20:35:12.990Z,99316.41
2022-11-27T20:37:59.373Z,99320.38
2022-11-27T20:40:45.248Z,99321.56
2022-11-27T20:43:30.554Z,99324.34
2022-11-27T20:46:16.922Z,99328.34
2022-11-27T20:49:03.475Z,99320.03
2022-11-27T20:51:50.472Z,99313.25
2022-11-27T20:54:38.684Z,99320.03
2022-11-27T20:57:25.054Z,99312.88
2022-11-27T21:00:11.237Z,99313.25
2022-11-27T21:02:56.799Z,99310.47
2022-11-27T21:05:44.005Z,99316.41
2022-11-27T21:08:29.499Z,99310.84
2022-11-27T21:11:25.369Z,99301.31
2022-11-27T21:14:13.973Z,99298.19
2022-11-27T21:17:04.566Z,99299.78
2022-11-27T21:19:51.452Z,99306.91
2022-11-27T21:22:37.146Z,99292.25
2022-11-27T21:25:25.487Z,99300.59
2022-11-27T21:28:10.971Z,99293.06
2022-11-27T21:31:17.858Z,99283.66
2022-11-27T21:34:04.575Z,99273.38
2022-11-27T21:36:50.955Z,99282.56
2022-11-27T21:39:38.477Z,99275.50
2022-11-27T21:42:24.247Z,99273.50
2022-11-27T21:45:10.388Z,99265.25
2022-11-27T21:47:55.985Z,99256.19
2022-11-27T21:50:41.695Z,99254.66
2022-11-27T21:53:30.087Z,99251.91
2022-11-27T21:56:18.743Z,99246.44
2022-11-27T21:59:05.671Z,99243.69
2022-11-27T22:01:51.739Z,99239.00
2022-11-27T22:04:37.156Z,99232.28
2022-11-27T22:07:22.545Z,99230.34
2022-11-27T22:10:08.709Z,99233.53
2022-11-27T22:12:54.151Z,99223.25
2022-11-27T22:15:39.426Z,99224.88
2022-11-27T22:18:24.726Z,99217.41
2022-11-27T22:21:12.263Z,99209.50
2022-11-27T22:23:58.079Z,99202.81
2022-11-27T22:26:43.396Z,99209.97
2022-11-27T22:29:28.937Z,99207.59
2022-11-27T22:32:14.278Z,99195.72
2022-11-27T22:34:59.425Z,99199.69
2022-11-27T22:37:44.732Z,99196.53
2022-11-27T22:40:29.938Z,99191.84
2022-11-27T22:43:15.739Z,99196.59
2022-11-27T22:46:07.944Z,99185.94
2022-11-27T22:48:58.368Z,99181.59
2022-11-27T22:51:44.154Z,99188.31
2022-11-27T22:54:29.673Z,99186.41
2022-11-27T22:57:15.153Z,99184.03
2022-11-27T23:00:01.382Z,99184.03
2022-11-27T23:02:48.555Z,99177.72
2022-11-27T23:05:33.912Z,99171.38
2022-11-27T23:08:19.140Z,99173.72
2022-11-27T23:11:05.872Z,99173.34
2022-11-27T23:13:56.686Z,99164.25
2022-11-27T23:16:42.112Z,99163.47
2022-11-27T23:19:27.342Z,99165.47
2022-11-27T23:22:13.252Z,99165.88
2022-11-27T23:24:58.459Z,99160.72
2022-11-27T23:27:44.936Z,99167.50
2022-11-27T23:30:30.484Z,99163.50
2022-11-27T23:33:15.862Z,99156.03
2022-11-27T23:36:02.306Z,99155.25
2022-11-27T23:38:47.721Z,99163.94
2022-11-27T23:41:33.387Z,99156.44
2022-11-27T23:44:18.829Z,99150.88
2022-11-27T23:47:04.304Z,99150.13
2022-11-27T23:49:50.011Z,99139.44
2022-11-27T23:52:35.371Z,99144.63
2022-11-27T23:55:20.634Z,99143.81
2022-11-27T23:58:05.867Z,99148.59
